createdAt,value
2023-03-14T00:00:00.939Z,6.71
2023-03-14T00:00:10.950Z,6.70
2023-03-14T00:00:20.940Z,6.70
2023-03-14T00:00:30.927Z,6.71
2023-03-14T00:00:40.956Z,6.69
2023-03-14T00:00:50.957Z,6.69
2023-03-14T00:01:00.934Z,6.67
2023-03-14T00:01:10.935Z,6.67
2023-03-14T00:01:20.951Z,6.64
2023-03-14T00:01:30.946Z,6.64
2023-03-14T00:01:40.937Z,6.61
2023-03-14T00:01:50.950Z,6.60
2023-03-14T00:02:00.947Z,6.63
2023-03-14T00:02:10.994Z,6.62
2023-03-14T00:02:20.962Z,6.62
2023-03-14T00:02:30.994Z,6.62
2023-03-14T00:02:40.998Z,6.62
2023-03-14T00:02:50.968Z,6.61
2023-03-14T00:03:00.943Z,6.59
2023-03-14T00:03:10.949Z,6.58
2023-03-14T00:03:20.970Z,6.56
2023-03-14T00:03:30.945Z,6.57
2023-03-14T00:03:40.944Z,6.56
2023-03-14T00:03:50.954Z,6.55
2023-03-14T00:04:00.958Z,6.55
2023-03-14T00:04:10.948Z,6.54
2023-03-14T00:04:20.959Z,6.53
2023-03-14T00:04:31.668Z,6.53
2023-03-14T00:04:40.963Z,6.53
2023-03-14T00:04:50.957Z,6.53
2023-03-14T00:05:00.954Z,6.50
2023-03-14T00:05:10.975Z,6.50
2023-03-14T00:05:20.973Z,6.49
2023-03-14T00:05:30.965Z,6.49
2023-03-14T00:05:40.955Z,6.47
2023-03-14T00:05:50.971Z,6.46
2023-03-14T00:06:00.959Z,6.45
2023-03-14T00:06:10.960Z,6.44
2023-03-14T00:06:20.988Z,6.43
2023-03-14T00:06:30.958Z,6.43
2023-03-14T00:06:40.961Z,6.44
2023-03-14T00:06:50.959Z,6.44
2023-03-14T00:07:00.994Z,6.44
2023-03-14T00:07:10.981Z,6.42
2023-03-14T00:07:20.962Z,6.43
2023-03-14T00:07:30.961Z,6.42
2023-03-14T00:07:40.978Z,6.41
2023-03-14T00:07:50.970Z,6.40
2023-03-14T00:08:00.973Z,6.40
2023-03-14T00:08:10.974Z,6.40
2023-03-14T00:08:20.971Z,6.40
2023-03-14T00:08:30.967Z,6.38
2023-03-14T00:08:40.982Z,6.39
2023-03-14T00:08:50.967Z,6.40
2023-03-14T00:09:00.984Z,6.39
2023-03-14T00:09:10.996Z,6.41
2023-03-14T00:09:20.976Z,6.41
2023-03-14T00:09:30.995Z,6.40
2023-03-14T00:09:40.986Z,6.39
2023-03-14T00:09:50.973Z,6.38
2023-03-14T00:10:00.989Z,6.40
2023-03-14T00:10:10.995Z,6.39
2023-03-14T00:10:20.980Z,6.38
2023-03-14T00:10:30.975Z,6.39
2023-03-14T00:10:40.989Z,6.38
2023-03-14T00:10:50.983Z,6.37
2023-03-14T00:11:00.985Z,6.37
2023-03-14T00:11:11.006Z,6.37
2023-03-14T00:11:20.998Z,6.36
2023-03-14T00:11:30.983Z,6.37
2023-03-14T00:11:40.998Z,6.37
2023-03-14T00:11:50.988Z,6.38
2023-03-14T00:12:00.984Z,6.39
2023-03-14T00:12:10.992Z,6.36
2023-03-14T00:12:20.998Z,6.40
2023-03-14T00:12:31.006Z,6.40
2023-03-14T00:12:40.992Z,6.38
2023-03-14T00:12:50.991Z,6.40
2023-03-14T00:13:00.995Z,6.39
2023-03-14T00:13:10.992Z,6.42
2023-03-14T00:13:20.996Z,6.41
2023-03-14T00:13:31.003Z,6.41
2023-03-14T00:13:41.009Z,6.40
2023-03-14T00:13:50.997Z,6.43
2023-03-14T00:14:01.009Z,6.43
2023-03-14T00:14:10.998Z,6.43
2023-03-14T00:14:21.000Z,6.42
2023-03-14T00:14:31.003Z,6.43
2023-03-14T00:14:41.003Z,6.41
2023-03-14T00:14:50.996Z,6.42
2023-03-14T00:15:01.006Z,6.42
2023-03-14T00:15:11.007Z,6.41
2023-03-14T00:15:20.997Z,6.41
2023-03-14T00:15:31.015Z,6.40
2023-03-14T00:15:41.071Z,6.41
2023-03-14T00:15:51.046Z,6.40
2023-03-14T00:16:01.054Z,6.40
2023-03-14T00:16:11.074Z,6.39
2023-03-14T00:16:21.207Z,6.37
2023-03-14T00:16:31.010Z,6.38
2023-03-14T00:16:41.013Z,6.35
2023-03-14T00:16:51.008Z,6.35
2023-03-14T00:17:01.005Z,6.36
2023-03-14T00:17:11.010Z,6.33
2023-03-14T00:17:21.014Z,6.34
2023-03-14T00:17:31.007Z,6.34
2023-03-14T00:17:41.013Z,6.35
2023-03-14T00:17:51.062Z,6.35
2023-03-14T00:18:01.034Z,6.33
2023-03-14T00:18:11.016Z,6.32
2023-03-14T00:18:21.009Z,6.31
2023-03-14T00:18:31.015Z,6.28
2023-03-14T00:18:41.031Z,6.30
2023-03-14T00:18:51.026Z,6.30
2023-03-14T00:19:01.013Z,6.28
2023-03-14T00:19:11.021Z,6.28
2023-03-14T00:19:21.013Z,6.28
2023-03-14T00:19:31.058Z,6.28
2023-03-14T00:19:41.027Z,6.29
2023-03-14T00:19:51.015Z,6.28
2023-03-14T00:20:01.047Z,6.28
2023-03-14T00:20:11.029Z,6.31
2023-03-14T00:20:21.020Z,6.31
2023-03-14T00:20:31.042Z,6.32
2023-03-14T00:20:41.027Z,6.33
2023-03-14T00:20:51.018Z,6.34
2023-03-14T00:21:01.071Z,6.34
2023-03-14T00:21:11.022Z,6.35
2023-03-14T00:21:21.022Z,6.34
2023-03-14T00:21:31.029Z,6.35
2023-03-14T00:21:41.034Z,6.36
2023-03-14T00:21:51.030Z,6.35
2023-03-14T00:22:01.026Z,6.35
2023-03-14T00:22:11.027Z,6.36
2023-03-14T00:22:21.025Z,6.36
2023-03-14T00:22:31.027Z,6.35
2023-03-14T00:22:41.067Z,6.35
2023-03-14T00:22:51.024Z,6.36
2023-03-14T00:23:01.042Z,6.37
2023-03-14T00:23:11.030Z,6.36
2023-03-14T00:23:21.030Z,6.35
2023-03-14T00:23:31.036Z,6.34
2023-03-14T00:23:41.031Z,6.33
2023-03-14T00:23:51.040Z,6.33
2023-03-14T00:24:01.041Z,6.31
2023-03-14T00:24:11.040Z,6.33
2023-03-14T00:24:21.035Z,6.31
2023-03-14T00:24:31.046Z,6.29
2023-03-14T00:24:41.041Z,6.29
2023-03-14T00:24:51.038Z,6.32
2023-03-14T00:25:01.051Z,6.30
2023-03-14T00:25:11.063Z,6.30
2023-03-14T00:25:21.046Z,6.30
2023-03-14T00:25:31.067Z,6.30
2023-03-14T00:25:41.053Z,6.31
2023-03-14T00:25:51.049Z,6.30
2023-03-14T00:26:01.056Z,6.31
2023-03-14T00:26:11.063Z,6.32
2023-03-14T00:26:21.055Z,6.31
2023-03-14T00:26:31.056Z,6.31
2023-03-14T00:26:41.057Z,6.30
2023-03-14T00:26:51.052Z,6.30
2023-03-14T00:27:01.071Z,6.29
2023-03-14T00:27:11.054Z,6.28
2023-03-14T00:27:21.050Z,6.28
2023-03-14T00:27:31.121Z,6.29
2023-03-14T00:27:41.057Z,6.28
2023-03-14T00:27:51.053Z,6.27
2023-03-14T00:28:01.053Z,6.28
2023-03-14T00:28:11.053Z,6.27
2023-03-14T00:28:21.056Z,6.29
2023-03-14T00:28:31.073Z,6.27
2023-03-14T00:28:41.053Z,6.28
2023-03-14T00:28:51.073Z,6.28
2023-03-14T00:29:01.059Z,6.28
2023-03-14T00:29:11.059Z,6.28
2023-03-14T00:29:21.057Z,6.27
2023-03-14T00:29:31.059Z,6.27
2023-03-14T00:29:41.058Z,6.26
2023-03-14T00:29:51.078Z,6.26
2023-03-14T00:30:01.057Z,6.27
2023-03-14T00:30:11.088Z,6.26
2023-03-14T00:30:21.062Z,6.26
2023-03-14T00:30:31.073Z,6.24
2023-03-14T00:30:41.072Z,6.25
2023-03-14T00:30:51.136Z,6.25
2023-03-14T00:31:01.087Z,6.26
2023-03-14T00:31:11.131Z,6.22
2023-03-14T00:31:21.131Z,6.23
2023-03-14T00:31:31.146Z,6.25
2023-03-14T00:31:41.109Z,6.25
2023-03-14T00:31:51.070Z,6.26
2023-03-14T00:32:01.070Z,6.26
2023-03-14T00:32:11.081Z,6.27
2023-03-14T00:32:21.110Z,6.27
2023-03-14T00:32:31.102Z,6.26
2023-03-14T00:32:41.151Z,6.27
2023-03-14T00:32:51.179Z,6.27
2023-03-14T00:33:01.082Z,6.28
2023-03-14T00:33:11.082Z,6.27
2023-03-14T00:33:21.080Z,6.27
2023-03-14T00:33:31.072Z,6.26
2023-03-14T00:33:41.077Z,6.26
2023-03-14T00:33:51.076Z,6.26
2023-03-14T00:34:01.076Z,6.24
2023-03-14T00:34:11.121Z,6.23
2023-03-14T00:34:21.082Z,6.23
2023-03-14T00:34:31.090Z,6.22
2023-03-14T00:34:41.086Z,6.20
2023-03-14T00:34:51.079Z,6.20
2023-03-14T00:35:01.085Z,6.22
2023-03-14T00:35:11.086Z,6.22
2023-03-14T00:35:21.085Z,6.23
2023-03-14T00:35:31.089Z,6.23
2023-03-14T00:35:41.096Z,6.23
2023-03-14T00:35:51.099Z,6.22
2023-03-14T00:36:01.152Z,6.21
2023-03-14T00:36:11.146Z,6.21
2023-03-14T00:36:21.098Z,6.21
2023-03-14T00:36:31.128Z,6.22
2023-03-14T00:36:41.093Z,6.22
2023-03-14T00:36:51.085Z,6.21
2023-03-14T00:37:01.085Z,6.22
2023-03-14T00:37:11.125Z,6.19
2023-03-14T00:37:21.090Z,6.19
2023-03-14T00:37:31.092Z,6.18
2023-03-14T00:37:41.089Z,6.18
2023-03-14T00:37:51.084Z,6.16
2023-03-14T00:38:01.083Z,6.18
2023-03-14T00:38:11.084Z,6.17
2023-03-14T00:38:21.085Z,6.18
2023-03-14T00:38:31.126Z,6.18
2023-03-14T00:38:41.090Z,6.18
2023-03-14T00:38:51.094Z,6.17
2023-03-14T00:39:01.090Z,6.14
2023-03-14T00:39:11.099Z,6.16
2023-03-14T00:39:21.095Z,6.16
2023-03-14T00:39:31.089Z,6.16
2023-03-14T00:39:41.098Z,6.18
2023-03-14T00:39:51.098Z,6.19
2023-03-14T00:40:01.114Z,6.18
2023-03-14T00:40:11.106Z,6.18
2023-03-14T00:40:21.102Z,6.19
2023-03-14T00:40:31.098Z,6.19
2023-03-14T00:40:41.101Z,6.20
2023-03-14T00:40:51.102Z,6.19
2023-03-14T00:41:01.104Z,6.21
2023-03-14T00:41:11.125Z,6.21
2023-03-14T00:41:21.098Z,6.20
2023-03-14T00:41:31.104Z,6.22
2023-03-14T00:41:41.109Z,6.22
2023-03-14T00:41:51.103Z,6.20
2023-03-14T00:42:01.106Z,6.22
2023-03-14T00:42:11.105Z,6.23
2023-03-14T00:42:21.109Z,6.23
2023-03-14T00:42:31.107Z,6.24
2023-03-14T00:42:41.108Z,6.21
2023-03-14T00:42:51.130Z,6.22
2023-03-14T00:43:01.109Z,6.22
2023-03-14T00:43:11.113Z,6.21
2023-03-14T00:43:21.110Z,6.20
2023-03-14T00:43:31.132Z,6.22
2023-03-14T00:43:41.116Z,6.22
2023-03-14T00:43:51.124Z,6.25
2023-03-14T00:44:01.125Z,6.26
2023-03-14T00:44:11.118Z,6.29
2023-03-14T00:44:21.124Z,6.28
2023-03-14T00:44:31.126Z,6.29
2023-03-14T00:44:41.129Z,6.32
2023-03-14T00:44:51.151Z,6.30
2023-03-14T00:45:01.150Z,6.28
2023-03-14T00:45:11.149Z,6.29
2023-03-14T00:45:21.121Z,6.29
2023-03-14T00:45:31.121Z,6.30
2023-03-14T00:45:41.136Z,6.28
2023-03-14T00:45:51.123Z,6.27
2023-03-14T00:46:01.123Z,6.26
2023-03-14T00:46:11.253Z,6.26
2023-03-14T00:46:21.189Z,6.26
2023-03-14T00:46:31.199Z,6.23
2023-03-14T00:46:41.159Z,6.24
2023-03-14T00:46:51.173Z,6.23
2023-03-14T00:47:01.165Z,6.22
2023-03-14T00:47:11.133Z,6.22
2023-03-14T00:47:21.164Z,6.23
2023-03-14T00:47:31.136Z,6.19
2023-03-14T00:47:41.133Z,6.20
2023-03-14T00:47:51.136Z,6.22
2023-03-14T00:48:01.133Z,6.19
2023-03-14T00:48:11.130Z,6.19
2023-03-14T00:48:21.125Z,6.17
2023-03-14T00:48:31.140Z,6.18
2023-03-14T00:48:41.144Z,6.17
2023-03-14T00:48:51.130Z,6.16
2023-03-14T00:49:01.132Z,6.17
2023-03-14T00:49:11.139Z,6.17
2023-03-14T00:49:21.137Z,6.16
2023-03-14T00:49:31.152Z,6.15
2023-03-14T00:49:41.144Z,6.12
2023-03-14T00:49:51.150Z,6.14
2023-03-14T00:50:01.142Z,6.12
2023-03-14T00:50:11.141Z,6.14
2023-03-14T00:50:21.144Z,6.12
2023-03-14T00:50:31.140Z,6.12
2023-03-14T00:50:41.142Z,6.11
2023-03-14T00:50:51.145Z,6.12
2023-03-14T00:51:01.149Z,6.12
2023-03-14T00:51:11.160Z,6.12
2023-03-14T00:51:21.148Z,6.13
2023-03-14T00:51:31.147Z,6.12
2023-03-14T00:51:41.167Z,6.11
2023-03-14T00:51:51.145Z,6.09
2023-03-14T00:52:01.161Z,6.09
2023-03-14T00:52:11.155Z,6.09
2023-03-14T00:52:21.155Z,6.08
2023-03-14T00:52:31.149Z,6.09
2023-03-14T00:52:41.163Z,6.09
2023-03-14T00:52:51.172Z,6.10
2023-03-14T00:53:01.155Z,6.09
2023-03-14T00:53:11.170Z,6.10
2023-03-14T00:53:21.150Z,6.10
2023-03-14T00:53:31.155Z,6.10
2023-03-14T00:53:41.153Z,6.11
2023-03-14T00:53:51.179Z,6.10
2023-03-14T00:54:01.155Z,6.10
2023-03-14T00:54:11.154Z,6.11
2023-03-14T00:54:21.187Z,6.11
2023-03-14T00:54:31.156Z,6.11
2023-03-14T00:54:41.165Z,6.11
2023-03-14T00:54:51.162Z,6.11
2023-03-14T00:55:01.176Z,6.13
2023-03-14T00:55:11.177Z,6.12
2023-03-14T00:55:21.163Z,6.11
2023-03-14T00:55:31.166Z,6.13
2023-03-14T00:55:41.161Z,6.11
2023-03-14T00:55:51.169Z,6.12
2023-03-14T00:56:01.183Z,6.13
2023-03-14T00:56:11.179Z,6.11
2023-03-14T00:56:21.162Z,6.12
2023-03-14T00:56:31.179Z,6.15
2023-03-14T00:56:41.181Z,6.14
2023-03-14T00:56:51.176Z,6.14
2023-03-14T00:57:01.175Z,6.14
2023-03-14T00:57:12.183Z,6.15
2023-03-14T00:57:21.165Z,6.15
2023-03-14T00:57:31.176Z,6.15
2023-03-14T00:57:41.169Z,6.14
2023-03-14T00:57:51.172Z,6.14
2023-03-14T00:58:01.183Z,6.13
2023-03-14T00:58:11.220Z,6.15
2023-03-14T00:58:21.171Z,6.13
2023-03-14T00:58:31.191Z,6.15
2023-03-14T00:58:41.176Z,6.15
2023-03-14T00:58:51.173Z,6.17
2023-03-14T00:59:01.180Z,6.18
2023-03-14T00:59:11.178Z,6.17
2023-03-14T00:59:21.207Z,6.18
2023-03-14T00:59:31.193Z,6.18
2023-03-14T00:59:41.182Z,6.18
2023-03-14T00:59:51.176Z,6.17
2023-03-14T01:00:01.181Z,6.18
2023-03-14T01:00:11.202Z,6.17
2023-03-14T01:00:21.179Z,6.17
2023-03-14T01:00:31.187Z,6.18
2023-03-14T01:00:41.195Z,6.18
2023-03-14T01:00:51.182Z,6.19
2023-03-14T01:01:01.182Z,6.19
2023-03-14T01:01:11.186Z,6.21
2023-03-14T01:01:21.200Z,6.23
2023-03-14T01:01:31.252Z,6.23
2023-03-14T01:01:41.277Z,6.23
2023-03-14T01:01:51.263Z,6.24
2023-03-14T01:02:01.292Z,6.24
2023-03-14T01:02:11.280Z,6.25
2023-03-14T01:02:21.198Z,6.24
2023-03-14T01:02:31.304Z,6.23
2023-03-14T01:02:41.265Z,6.24
2023-03-14T01:02:51.243Z,6.23
2023-03-14T01:03:01.323Z,6.24
2023-03-14T01:03:11.242Z,6.22
2023-03-14T01:03:21.201Z,6.22
2023-03-14T01:03:31.224Z,6.21
2023-03-14T01:03:41.194Z,6.22
2023-03-14T01:03:51.200Z,6.20
2023-03-14T01:04:01.198Z,6.19
2023-03-14T01:04:11.241Z,6.18
2023-03-14T01:04:21.199Z,6.16
2023-03-14T01:04:31.201Z,6.16
2023-03-14T01:04:41.196Z,6.16
2023-03-14T01:04:51.211Z,6.14
2023-03-14T01:05:01.203Z,6.12
2023-03-14T01:05:11.261Z,6.12
2023-03-14T01:05:21.207Z,6.10
2023-03-14T01:05:31.221Z,6.12
2023-03-14T01:05:41.211Z,6.10
2023-03-14T01:05:51.213Z,6.10
2023-03-14T01:06:01.204Z,6.12
2023-03-14T01:06:11.219Z,6.10
2023-03-14T01:06:21.221Z,6.14
2023-03-14T01:06:31.212Z,6.12
2023-03-14T01:06:41.242Z,6.12
2023-03-14T01:06:51.214Z,6.11
2023-03-14T01:07:01.217Z,6.11
2023-03-14T01:07:11.214Z,6.10
2023-03-14T01:07:21.236Z,6.11
2023-03-14T01:07:31.218Z,6.12
2023-03-14T01:07:41.248Z,6.13
2023-03-14T01:07:51.228Z,6.12
2023-03-14T01:08:01.225Z,6.12
2023-03-14T01:08:11.212Z,6.11
2023-03-14T01:08:21.236Z,6.11
2023-03-14T01:08:31.213Z,6.12
2023-03-14T01:08:41.214Z,6.13
2023-03-14T01:08:51.233Z,6.12
2023-03-14T01:09:01.219Z,6.13
2023-03-14T01:09:11.221Z,6.13
2023-03-14T01:09:21.229Z,6.12
2023-03-14T01:09:31.227Z,6.12
2023-03-14T01:09:41.219Z,6.12
2023-03-14T01:09:51.225Z,6.13
2023-03-14T01:10:01.261Z,6.11
2023-03-14T01:10:11.235Z,6.11
2023-03-14T01:10:21.231Z,6.13
2023-03-14T01:10:31.235Z,6.12
2023-03-14T01:10:41.254Z,6.13
2023-03-14T01:10:51.226Z,6.12
2023-03-14T01:11:01.226Z,6.13
2023-03-14T01:11:11.243Z,6.13
2023-03-14T01:11:21.237Z,6.13
2023-03-14T01:11:31.232Z,6.13
2023-03-14T01:11:41.227Z,6.14
2023-03-14T01:11:51.240Z,6.14
2023-03-14T01:12:01.234Z,6.15
2023-03-14T01:12:11.220Z,6.15
2023-03-14T01:12:21.238Z,6.14
2023-03-14T01:12:31.236Z,6.13
2023-03-14T01:12:41.266Z,6.13
2023-03-14T01:12:51.251Z,6.14
2023-03-14T01:13:01.238Z,6.15
2023-03-14T01:13:11.229Z,6.16
2023-03-14T01:13:21.257Z,6.17
2023-03-14T01:13:31.240Z,6.17
2023-03-14T01:13:41.230Z,6.16
2023-03-14T01:13:51.236Z,6.17
2023-03-14T01:14:01.247Z,6.17
2023-03-14T01:14:11.240Z,6.17
2023-03-14T01:14:21.255Z,6.16
2023-03-14T01:14:31.249Z,6.17
2023-03-14T01:14:41.244Z,6.16
2023-03-14T01:14:51.247Z,6.15
2023-03-14T01:15:01.244Z,6.14
2023-03-14T01:15:11.257Z,6.15
2023-03-14T01:15:21.239Z,6.15
2023-03-14T01:15:31.242Z,6.14
2023-03-14T01:15:41.248Z,6.13
2023-03-14T01:15:51.265Z,6.13
2023-03-14T01:16:01.254Z,6.13
2023-03-14T01:16:11.306Z,6.13
2023-03-14T01:16:21.292Z,6.14
2023-03-14T01:16:31.289Z,6.13
2023-03-14T01:16:41.251Z,6.13
2023-03-14T01:16:51.278Z,6.12
2023-03-14T01:17:01.260Z,6.12
2023-03-14T01:17:11.252Z,6.11
2023-03-14T01:17:21.256Z,6.12
2023-03-14T01:17:31.259Z,6.11
2023-03-14T01:17:41.257Z,6.11
2023-03-14T01:17:51.272Z,6.11
2023-03-14T01:18:01.249Z,6.11
2023-03-14T01:18:11.834Z,6.13
2023-03-14T01:18:21.257Z,6.12
2023-03-14T01:18:31.267Z,6.11
2023-03-14T01:18:41.253Z,6.10
2023-03-14T01:18:51.258Z,6.13
2023-03-14T01:19:01.259Z,6.12
2023-03-14T01:19:11.262Z,6.12
2023-03-14T01:19:21.282Z,6.12
2023-03-14T01:19:31.298Z,6.13
2023-03-14T01:19:41.284Z,6.13
2023-03-14T01:19:51.300Z,6.13
2023-03-14T01:20:01.345Z,6.13
2023-03-14T01:20:11.276Z,6.12
2023-03-14T01:20:21.270Z,6.13
2023-03-14T01:20:31.262Z,6.11
2023-03-14T01:20:41.274Z,6.12
2023-03-14T01:20:51.261Z,6.12
2023-03-14T01:21:01.269Z,6.12
2023-03-14T01:21:11.290Z,6.14
2023-03-14T01:21:21.281Z,6.12
2023-03-14T01:21:31.265Z,6.12
2023-03-14T01:21:41.279Z,6.11
2023-03-14T01:21:51.286Z,6.11
2023-03-14T01:22:01.276Z,6.13
2023-03-14T01:22:11.293Z,6.11
2023-03-14T01:22:21.276Z,6.12
2023-03-14T01:22:31.302Z,6.13
2023-03-14T01:22:41.300Z,6.13
2023-03-14T01:22:51.279Z,6.12
2023-03-14T01:23:01.272Z,6.10
2023-03-14T01:23:11.288Z,6.11
2023-03-14T01:23:21.279Z,6.10
2023-03-14T01:23:31.283Z,6.10
2023-03-14T01:23:41.274Z,6.10
2023-03-14T01:23:51.281Z,6.09
2023-03-14T01:24:01.277Z,6.06
2023-03-14T01:24:11.272Z,6.07
2023-03-14T01:24:21.273Z,6.06
2023-03-14T01:24:31.280Z,6.04
2023-03-14T01:24:41.287Z,6.05
2023-03-14T01:24:51.277Z,6.04
2023-03-14T01:25:01.284Z,6.07
2023-03-14T01:25:11.288Z,6.08
2023-03-14T01:25:21.279Z,6.06
2023-03-14T01:25:31.282Z,6.06
2023-03-14T01:25:41.283Z,6.08
2023-03-14T01:25:51.290Z,6.08
2023-03-14T01:26:01.285Z,6.10
2023-03-14T01:26:11.281Z,6.10
2023-03-14T01:26:21.288Z,6.12
2023-03-14T01:26:31.284Z,6.11
2023-03-14T01:26:41.283Z,6.13
2023-03-14T01:26:51.297Z,6.12
2023-03-14T01:27:01.290Z,6.12
2023-03-14T01:27:11.289Z,6.12
2023-03-14T01:27:21.284Z,6.13
2023-03-14T01:27:31.295Z,6.12
2023-03-14T01:27:41.288Z,6.13
2023-03-14T01:27:51.288Z,6.13
2023-03-14T01:28:01.291Z,6.15
2023-03-14T01:28:11.307Z,6.15
2023-03-14T01:28:21.296Z,6.17
2023-03-14T01:28:31.293Z,6.14
2023-03-14T01:28:41.295Z,6.12
2023-03-14T01:28:51.289Z,6.13
2023-03-14T01:29:01.290Z,6.12
2023-03-14T01:29:11.297Z,6.10
2023-03-14T01:29:21.291Z,6.12
2023-03-14T01:29:31.296Z,6.13
2023-03-14T01:29:41.295Z,6.11
2023-03-14T01:29:51.319Z,6.11
2023-03-14T01:30:01.297Z,6.10
2023-03-14T01:30:11.306Z,6.08
2023-03-14T01:30:21.295Z,6.09
2023-03-14T01:30:31.300Z,6.10
2023-03-14T01:30:41.304Z,6.11
2023-03-14T01:30:51.295Z,6.08
2023-03-14T01:31:01.358Z,6.09
2023-03-14T01:31:11.395Z,6.09
2023-03-14T01:31:21.339Z,6.08
2023-03-14T01:31:31.389Z,6.10
2023-03-14T01:31:41.372Z,6.08
2023-03-14T01:31:51.335Z,6.07
2023-03-14T01:32:01.327Z,6.07
2023-03-14T01:32:11.305Z,6.07
2023-03-14T01:32:21.322Z,6.07
2023-03-14T01:32:31.374Z,6.09
2023-03-14T01:32:41.357Z,6.08
2023-03-14T01:32:51.369Z,6.07
2023-03-14T01:33:01.316Z,6.09
2023-03-14T01:33:11.307Z,6.09
2023-03-14T01:33:21.308Z,6.11
2023-03-14T01:33:31.325Z,6.10
2023-03-14T01:33:41.315Z,6.10
2023-03-14T01:33:51.327Z,6.11
2023-03-14T01:34:01.323Z,6.12
2023-03-14T01:34:11.321Z,6.12
2023-03-14T01:34:21.311Z,6.12
2023-03-14T01:34:31.314Z,6.11
2023-03-14T01:34:41.338Z,6.10
2023-03-14T01:34:51.316Z,6.10
2023-03-14T01:35:01.316Z,6.11
2023-03-14T01:35:11.325Z,6.10
2023-03-14T01:35:21.317Z,6.09
2023-03-14T01:35:31.386Z,6.08
2023-03-14T01:35:41.396Z,6.11
2023-03-14T01:35:51.400Z,6.11
2023-03-14T01:36:01.395Z,6.10
2023-03-14T01:36:11.349Z,6.11
2023-03-14T01:36:21.322Z,6.10
2023-03-14T01:36:31.921Z,6.09
2023-03-14T01:36:41.336Z,6.09
2023-03-14T01:36:51.330Z,6.07
2023-03-14T01:37:01.349Z,6.06
2023-03-14T01:37:11.327Z,6.04
2023-03-14T01:37:21.329Z,6.05
2023-03-14T01:37:31.359Z,6.05
2023-03-14T01:37:42.199Z,6.04
2023-03-14T01:37:51.326Z,6.03
2023-03-14T01:38:01.332Z,6.03
2023-03-14T01:38:11.342Z,6.03
2023-03-14T01:38:21.339Z,6.03
2023-03-14T01:38:31.346Z,6.04
2023-03-14T01:38:41.338Z,6.04
2023-03-14T01:38:51.353Z,6.04
2023-03-14T01:39:01.329Z,6.05
2023-03-14T01:39:11.329Z,6.05
2023-03-14T01:39:21.337Z,6.05
2023-03-14T01:39:31.343Z,6.06
2023-03-14T01:39:42.195Z,6.06
2023-03-14T01:39:51.347Z,6.05
2023-03-14T01:40:01.339Z,6.03
2023-03-14T01:40:11.348Z,6.04
2023-03-14T01:40:21.342Z,6.06
2023-03-14T01:40:31.339Z,6.04
2023-03-14T01:40:41.343Z,6.06
2023-03-14T01:40:51.337Z,6.05
2023-03-14T01:41:01.341Z,6.03
2023-03-14T01:41:11.342Z,6.03
2023-03-14T01:41:21.358Z,6.04
2023-03-14T01:41:31.341Z,6.05
2023-03-14T01:41:41.341Z,6.06
2023-03-14T01:41:51.360Z,6.06
2023-03-14T01:42:01.358Z,6.06
2023-03-14T01:42:11.338Z,6.05
2023-03-14T01:42:21.349Z,6.04
2023-03-14T01:42:31.364Z,6.05
2023-03-14T01:42:41.353Z,6.04
2023-03-14T01:42:51.347Z,6.05
2023-03-14T01:43:01.353Z,6.06
2023-03-14T01:43:11.350Z,6.04
2023-03-14T01:43:21.481Z,6.02
2023-03-14T01:43:31.350Z,6.00
2023-03-14T01:43:41.353Z,6.01
2023-03-14T01:43:51.354Z,6.00
2023-03-14T01:44:01.365Z,6.00
2023-03-14T01:44:11.362Z,6.01
2023-03-14T01:44:21.361Z,6.00
2023-03-14T01:44:31.358Z,6.02
2023-03-14T01:44:41.366Z,6.00
2023-03-14T01:44:51.354Z,5.98
2023-03-14T01:45:01.354Z,5.98
2023-03-14T01:45:11.365Z,5.98
2023-03-14T01:45:21.377Z,5.97
2023-03-14T01:45:31.381Z,6.00
2023-03-14T01:45:41.425Z,5.97
2023-03-14T01:45:51.405Z,5.97
2023-03-14T01:46:01.440Z,5.93
2023-03-14T01:46:11.429Z,5.92
2023-03-14T01:46:21.358Z,5.95
2023-03-14T01:46:31.370Z,5.92
2023-03-14T01:46:41.390Z,5.93
2023-03-14T01:46:51.363Z,5.93
2023-03-14T01:47:01.394Z,5.93
2023-03-14T01:47:11.371Z,5.93
2023-03-14T01:47:21.377Z,5.90
2023-03-14T01:47:31.373Z,5.91
2023-03-14T01:47:41.377Z,5.91
2023-03-14T01:47:51.367Z,5.89
2023-03-14T01:48:01.367Z,5.90
2023-03-14T01:48:11.377Z,5.91
2023-03-14T01:48:21.380Z,5.89
2023-03-14T01:48:31.383Z,5.90
2023-03-14T01:48:41.391Z,5.90
2023-03-14T01:48:51.377Z,5.87
2023-03-14T01:49:01.380Z,5.89
2023-03-14T01:49:11.382Z,5.90
2023-03-14T01:49:21.407Z,5.90
2023-03-14T01:49:31.380Z,5.89
2023-03-14T01:49:41.377Z,5.92
2023-03-14T01:49:51.378Z,5.91
2023-03-14T01:50:01.401Z,5.91
2023-03-14T01:50:11.392Z,5.91
2023-03-14T01:50:21.382Z,5.89
2023-03-14T01:50:31.376Z,5.90
2023-03-14T01:50:41.381Z,5.90
2023-03-14T01:50:51.379Z,5.91
2023-03-14T01:51:01.409Z,5.90
2023-03-14T01:51:11.384Z,5.90
2023-03-14T01:51:21.384Z,5.89
2023-03-14T01:51:31.389Z,5.91
2023-03-14T01:51:41.395Z,5.91
2023-03-14T01:51:51.405Z,5.89
2023-03-14T01:52:01.413Z,5.92
2023-03-14T01:52:12.197Z,5.91
2023-03-14T01:52:21.392Z,5.91
2023-03-14T01:52:31.391Z,5.92
2023-03-14T01:52:41.405Z,5.90
2023-03-14T01:52:51.388Z,5.91
2023-03-14T01:53:01.394Z,5.92
2023-03-14T01:53:11.405Z,5.91
2023-03-14T01:53:21.385Z,5.94
2023-03-14T01:53:31.388Z,5.94
2023-03-14T01:53:41.397Z,5.95
2023-03-14T01:53:51.390Z,5.94
2023-03-14T01:54:01.396Z,5.94
2023-03-14T01:54:11.398Z,5.94
2023-03-14T01:54:21.402Z,5.93
2023-03-14T01:54:31.401Z,5.92
2023-03-14T01:54:41.401Z,5.92
2023-03-14T01:54:51.399Z,5.88
2023-03-14T01:55:01.396Z,5.89
2023-03-14T01:55:11.396Z,5.89
2023-03-14T01:55:21.423Z,5.85
2023-03-14T01:55:31.415Z,5.84
2023-03-14T01:55:41.400Z,5.83
2023-03-14T01:55:51.411Z,5.84
2023-03-14T01:56:01.401Z,5.86
2023-03-14T01:56:11.399Z,5.86
2023-03-14T01:56:21.400Z,5.84
2023-03-14T01:56:31.416Z,5.84
2023-03-14T01:56:41.409Z,5.86
2023-03-14T01:56:51.402Z,5.84
2023-03-14T01:57:01.421Z,5.82
2023-03-14T01:57:11.400Z,5.84
2023-03-14T01:57:21.409Z,5.84
2023-03-14T01:57:31.412Z,5.85
2023-03-14T01:57:41.409Z,5.87
2023-03-14T01:57:51.409Z,5.87
2023-03-14T01:58:01.415Z,5.88
2023-03-14T01:58:11.416Z,5.90
2023-03-14T01:58:21.415Z,5.87
2023-03-14T01:58:32.198Z,5.90
2023-03-14T01:58:41.410Z,5.88
2023-03-14T01:58:51.435Z,5.89
2023-03-14T01:59:01.413Z,5.86
2023-03-14T01:59:11.415Z,5.85
2023-03-14T01:59:21.436Z,5.90
2023-03-14T01:59:31.422Z,5.88
2023-03-14T01:59:41.422Z,5.89
2023-03-14T01:59:51.414Z,5.89
2023-03-14T02:00:01.424Z,5.87
2023-03-14T02:00:11.432Z,5.89
2023-03-14T02:00:21.413Z,5.90
2023-03-14T02:00:31.429Z,5.86
2023-03-14T02:00:41.467Z,5.87
2023-03-14T02:00:51.485Z,5.87
2023-03-14T02:01:01.481Z,5.87
2023-03-14T02:01:11.457Z,5.84
2023-03-14T02:01:21.502Z,5.85
2023-03-14T02:01:31.428Z,5.84
2023-03-14T02:01:41.421Z,5.85
2023-03-14T02:01:51.430Z,5.82
2023-03-14T02:02:01.442Z,5.83
2023-03-14T02:02:11.426Z,5.82
2023-03-14T02:02:21.448Z,5.85
2023-03-14T02:02:31.430Z,5.86
2023-03-14T02:02:41.426Z,5.88
2023-03-14T02:02:51.456Z,5.88
2023-03-14T02:03:01.466Z,5.88
2023-03-14T02:03:11.480Z,5.88
2023-03-14T02:03:21.471Z,5.87
2023-03-14T02:03:31.441Z,5.86
2023-03-14T02:03:41.489Z,5.84
2023-03-14T02:03:51.469Z,5.84
2023-03-14T02:04:01.431Z,5.86
2023-03-14T02:04:11.431Z,5.86
2023-03-14T02:04:21.445Z,5.87
2023-03-14T02:04:31.441Z,5.89
2023-03-14T02:04:41.445Z,5.89
2023-03-14T02:04:51.435Z,5.89
2023-03-14T02:05:01.435Z,5.88
2023-03-14T02:05:11.433Z,5.87
2023-03-14T02:05:21.435Z,5.87
2023-03-14T02:05:31.424Z,5.88
2023-03-14T02:05:41.444Z,5.88
2023-03-14T02:05:51.445Z,5.87
2023-03-14T02:06:01.445Z,5.87
2023-03-14T02:06:11.442Z,5.89
2023-03-14T02:06:21.459Z,5.89
2023-03-14T02:06:31.440Z,5.88
2023-03-14T02:06:41.444Z,5.91
2023-03-14T02:06:51.443Z,5.91
2023-03-14T02:07:02.191Z,5.90
2023-03-14T02:07:11.451Z,5.88
2023-03-14T02:07:21.450Z,5.88
2023-03-14T02:07:31.452Z,5.88
2023-03-14T02:07:41.444Z,5.87
2023-03-14T02:07:51.445Z,5.86
2023-03-14T02:08:01.455Z,5.86
2023-03-14T02:08:11.446Z,5.86
2023-03-14T02:08:21.461Z,5.87
2023-03-14T02:08:31.456Z,5.88
2023-03-14T02:08:41.462Z,5.86
2023-03-14T02:08:51.472Z,5.83
2023-03-14T02:09:01.492Z,5.82
2023-03-14T02:09:11.457Z,5.82
2023-03-14T02:09:22.200Z,5.83
2023-03-14T02:09:31.464Z,5.81
2023-03-14T02:09:41.462Z,5.81
2023-03-14T02:09:52.205Z,5.82
2023-03-14T02:10:01.466Z,5.81
2023-03-14T02:10:11.482Z,5.81
2023-03-14T02:10:21.459Z,5.80
2023-03-14T02:10:31.457Z,5.82
2023-03-14T02:10:41.481Z,5.81
2023-03-14T02:10:51.468Z,5.80
2023-03-14T02:11:01.463Z,5.78
2023-03-14T02:11:11.458Z,5.77
2023-03-14T02:11:21.469Z,5.78
2023-03-14T02:11:31.459Z,5.77
2023-03-14T02:11:41.472Z,5.76
2023-03-14T02:11:51.477Z,5.76
2023-03-14T02:12:01.471Z,5.75
2023-03-14T02:12:11.464Z,5.77
2023-03-14T02:12:21.464Z,5.76
2023-03-14T02:12:31.489Z,5.77
2023-03-14T02:12:41.463Z,5.77
2023-03-14T02:12:51.465Z,5.76
2023-03-14T02:13:01.466Z,5.76